createdAt,value
2024-02-23T00:01:31.865Z,10.94
2024-02-23T00:03:59.947Z,10.98
2024-02-23T00:06:29.415Z,11.02
2024-02-23T00:08:57.637Z,10.99
2024-02-23T00:11:26.659Z,10.77
2024-02-23T00:13:56.189Z,10.70
2024-02-23T00:16:24.229Z,10.70
2024-02-23T00:18:52.367Z,10.75
2024-02-23T00:21:20.489Z,10.74
2024-02-23T00:23:48.570Z,10.97
2024-02-23T00:26:16.709Z,11.01
2024-02-23T00:28:44.914Z,11.07
2024-02-23T00:31:14.520Z,11.13
2024-02-23T00:33:43.709Z,11.12
2024-02-23T00:36:11.884Z,11.11
2024-02-23T00:38:39.883Z,11.14
2024-02-23T00:41:08.335Z,11.18
2024-02-23T00:43:40.504Z,11.17
2024-02-23T00:46:08.923Z,11.10
2024-02-23T00:48:38.431Z,11.15
2024-02-23T00:51:06.647Z,11.19
2024-02-23T00:53:34.770Z,11.25
2024-02-23T00:56:03.061Z,11.31
2024-02-23T00:58:31.092Z,11.39
2024-02-23T01:00:59.167Z,11.46
2024-02-23T01:03:27.267Z,11.48
2024-02-23T01:05:56.861Z,11.56
2024-02-23T01:08:24.997Z,11.65
2024-02-23T01:10:53.114Z,11.68
2024-02-23T01:13:21.192Z,11.47
2024-02-23T01:15:49.488Z,11.68
2024-02-23T01:18:17.700Z,11.68
2024-02-23T01:20:45.728Z,11.67
2024-02-23T01:23:15.300Z,11.66
2024-02-23T01:25:43.383Z,11.66
2024-02-23T01:28:11.512Z,11.64
2024-02-23T01:30:39.783Z,11.60
2024-02-23T01:33:07.920Z,11.60
2024-02-23T01:35:37.715Z,11.57
2024-02-23T01:38:06.308Z,11.51
2024-02-23T01:40:35.839Z,11.53
2024-02-23T01:43:05.000Z,11.53
2024-02-23T01:45:33.128Z,11.51
2024-02-23T01:48:01.438Z,11.51
2024-02-23T01:50:29.666Z,11.45
2024-02-23T01:52:59.537Z,11.34
2024-02-23T01:55:27.585Z,11.44
2024-02-23T01:57:57.150Z,11.43
2024-02-23T02:00:25.217Z,11.48
2024-02-23T02:02:53.300Z,11.53
2024-02-23T02:05:21.404Z,11.55
2024-02-23T02:07:49.842Z,11.56
2024-02-23T02:10:17.886Z,11.54
2024-02-23T02:12:45.952Z,11.61
2024-02-23T02:15:15.378Z,11.61
2024-02-23T02:17:43.530Z,11.73
2024-02-23T02:20:13.851Z,11.84
2024-02-23T02:22:42.030Z,11.38
2024-02-23T02:25:10.502Z,10.81
2024-02-23T02:27:38.554Z,10.48
2024-02-23T02:30:07.626Z,10.32
2024-02-23T02:32:38.180Z,10.34
2024-02-23T02:35:07.250Z,10.33
2024-02-23T02:37:35.347Z,10.46
2024-02-23T02:40:03.821Z,10.57
2024-02-23T02:42:32.224Z,10.68
2024-02-23T02:45:00.262Z,10.80
2024-02-23T02:47:29.065Z,10.92
2024-02-23T02:49:58.525Z,11.05
2024-02-23T02:52:26.742Z,11.19
2024-02-23T02:54:54.731Z,11.18
2024-02-23T02:57:22.746Z,11.01
2024-02-23T02:59:51.480Z,10.84
2024-02-23T03:02:19.596Z,10.71
2024-02-23T03:04:50.863Z,10.64
2024-02-23T03:07:20.356Z,10.66
2024-02-23T03:09:48.413Z,10.75
2024-02-23T03:12:16.490Z,10.70
2024-02-23T03:14:44.528Z,10.22
2024-02-23T03:17:12.611Z,9.84
2024-02-23T03:19:40.769Z,9.71
2024-02-23T03:22:08.875Z,9.56
2024-02-23T03:24:38.539Z,9.54
2024-02-23T03:27:06.681Z,9.49
2024-02-23T03:29:34.851Z,9.60
2024-02-23T03:32:03.595Z,9.70
2024-02-23T03:34:31.682Z,9.86
2024-02-23T03:37:02.519Z,10.02
2024-02-23T03:39:30.949Z,10.16
2024-02-23T03:42:00.381Z,10.28
2024-02-23T03:44:28.682Z,10.41
2024-02-23T03:46:56.762Z,10.49
2024-02-23T03:49:24.814Z,10.57
2024-02-23T03:51:52.893Z,10.67
2024-02-23T03:54:21.045Z,10.72
2024-02-23T03:56:49.182Z,10.75
2024-02-23T03:59:18.645Z,10.76
2024-02-23T04:01:46.700Z,10.78
2024-02-23T04:04:14.969Z,10.81
2024-02-23T04:06:43.020Z,10.87
2024-02-23T04:09:11.073Z,10.95
2024-02-23T04:11:39.322Z,10.98
2024-02-23T04:14:07.512Z,11.01
2024-02-23T04:16:37.035Z,11.03
2024-02-23T04:19:05.150Z,11.06
2024-02-23T04:21:33.188Z,11.07
2024-02-23T04:24:01.231Z,11.06
2024-02-23T04:26:29.453Z,11.07
2024-02-23T04:28:57.572Z,11.03
2024-02-23T04:31:25.610Z,11.05
2024-02-23T04:33:55.069Z,11.07
2024-02-23T04:36:23.200Z,11.12
2024-02-23T04:38:51.241Z,11.06
2024-02-23T04:41:22.393Z,11.22
2024-02-23T04:43:50.611Z,11.27
2024-02-23T04:46:18.710Z,11.31
2024-02-23T04:48:46.735Z,11.32
2024-02-23T04:51:16.191Z,11.34
2024-02-23T04:53:44.259Z,11.33
2024-02-23T04:56:12.287Z,11.30
2024-02-23T04:58:42.438Z,11.34
2024-02-23T05:01:10.496Z,11.40
2024-02-23T05:03:38.686Z,11.39
2024-02-23T05:06:07.084Z,11.44
2024-02-23T05:08:36.568Z,11.43
2024-02-23T05:11:05.241Z,11.48
2024-02-23T05:13:33.347Z,11.51
2024-02-23T05:16:01.410Z,11.53
2024-02-23T05:18:29.447Z,11.62
2024-02-23T05:20:57.462Z,11.68
2024-02-23T05:23:25.646Z,11.72
2024-02-23T05:25:55.216Z,11.73
2024-02-23T05:28:23.299Z,11.75
2024-02-23T05:30:51.398Z,11.72
2024-02-23T05:35:50.016Z,11.81
2024-02-23T05:38:18.101Z,11.88
2024-02-23T05:40:46.572Z,11.76
2024-02-23T05:43:16.601Z,11.55
2024-02-23T05:45:45.272Z,11.34
2024-02-23T05:48:13.937Z,11.13
2024-02-23T05:50:42.073Z,10.91
2024-02-23T05:53:10.211Z,10.79
2024-02-23T05:55:38.240Z,10.25
2024-02-23T05:58:06.441Z,10.02
2024-02-23T06:00:36.022Z,9.80
2024-02-23T06:03:04.939Z,9.76
2024-02-23T06:05:33.044Z,9.76
2024-02-23T06:08:02.608Z,9.84
2024-02-23T06:10:30.717Z,9.90
2024-02-23T06:12:59.976Z,10.00
2024-02-23T06:15:29.415Z,10.09
2024-02-23T06:17:59.043Z,10.09
2024-02-23T06:20:27.187Z,10.06
2024-02-23T06:22:56.439Z,9.91
2024-02-23T06:25:24.454Z,9.66
2024-02-23T06:27:52.499Z,9.42
2024-02-23T06:30:21.972Z,9.26
2024-02-23T06:32:50.181Z,9.19
2024-02-23T06:35:19.762Z,9.23
2024-02-23T06:37:47.764Z,9.31
2024-02-23T06:40:16.168Z,9.47
2024-02-23T06:42:44.245Z,9.56
2024-02-23T06:45:12.699Z,9.68
2024-02-23T06:47:41.727Z,9.76
2024-02-23T06:50:10.567Z,9.80
2024-02-23T06:52:39.984Z,9.80
2024-02-23T06:55:09.808Z,9.77
2024-02-23T06:57:37.921Z,9.72
2024-02-23T07:00:09.762Z,9.63
2024-02-23T07:02:38.727Z,9.59
2024-02-23T07:05:07.498Z,9.52
2024-02-23T07:07:37.189Z,9.48
2024-02-23T07:10:07.537Z,9.41
2024-02-23T07:12:35.598Z,9.33
2024-02-23T07:15:04.182Z,9.14
2024-02-23T07:17:32.381Z,9.22
2024-02-23T07:20:06.883Z,9.23
2024-02-23T07:22:35.214Z,9.24
2024-02-23T07:25:05.613Z,9.33
2024-02-23T07:27:35.254Z,9.41
2024-02-23T07:30:04.066Z,9.45
2024-02-23T07:32:32.288Z,9.55
2024-02-23T07:35:00.898Z,9.61
2024-02-23T07:37:29.156Z,9.73
2024-02-23T07:39:57.262Z,9.78
2024-02-23T07:42:25.352Z,9.86
2024-02-23T07:44:54.716Z,9.90
2024-02-23T07:47:22.770Z,9.90
2024-02-23T07:49:52.443Z,10.04
2024-02-23T07:52:24.101Z,9.85
2024-02-23T07:54:53.113Z,10.11
2024-02-23T07:57:21.574Z,10.25
2024-02-23T07:59:50.149Z,10.33
2024-02-23T08:02:19.641Z,10.38
2024-02-23T08:04:48.988Z,10.32
2024-02-23T08:07:17.333Z,10.36
2024-02-23T08:09:45.671Z,10.32
2024-02-23T08:12:15.026Z,10.32
2024-02-23T08:14:43.681Z,10.37
2024-02-23T08:17:13.186Z,10.46
2024-02-23T08:19:42.702Z,10.51
2024-02-23T08:22:10.769Z,10.60
2024-02-23T08:24:38.837Z,10.51
2024-02-23T08:27:07.221Z,10.60
2024-02-23T08:29:35.322Z,10.69
2024-02-23T08:32:03.723Z,10.74
2024-02-23T08:34:32.061Z,10.81
2024-02-23T08:37:02.501Z,10.76
2024-02-23T08:39:31.241Z,10.68
2024-02-23T08:41:59.684Z,10.74
2024-02-23T08:44:28.228Z,10.74
2024-02-23T08:46:56.627Z,10.65
2024-02-23T08:49:24.811Z,10.77
2024-02-23T08:51:53.207Z,10.68
2024-02-23T08:54:22.766Z,10.80
2024-02-23T08:56:50.800Z,10.84
2024-02-23T08:59:18.888Z,10.79
2024-02-23T09:01:47.978Z,10.69
2024-02-23T09:04:16.035Z,10.62
2024-02-23T09:06:44.249Z,10.53
2024-02-23T09:09:12.459Z,10.56
2024-02-23T09:11:42.056Z,10.57
2024-02-23T09:14:10.480Z,10.58
2024-02-23T09:16:38.586Z,10.69
2024-02-23T09:19:07.534Z,10.75
2024-02-23T09:21:35.866Z,10.88
2024-02-23T09:24:03.859Z,10.91
2024-02-23T09:26:32.397Z,10.92
2024-02-23T09:29:02.004Z,10.92
2024-02-23T09:31:31.061Z,10.90
2024-02-23T09:33:59.230Z,10.89
2024-02-23T09:36:27.431Z,10.85
2024-02-23T09:38:55.487Z,10.72
2024-02-23T09:41:25.064Z,10.65
2024-02-23T09:43:54.050Z,10.56
2024-02-23T09:46:23.511Z,10.48
2024-02-23T09:48:52.040Z,10.23
2024-02-23T09:51:20.083Z,9.98
2024-02-23T09:53:48.595Z,9.78
2024-02-23T09:56:18.616Z,9.71
2024-02-23T09:58:47.083Z,9.57
2024-02-23T10:01:15.400Z,9.79
2024-02-23T10:03:44.896Z,9.94
2024-02-23T10:06:13.172Z,10.02
2024-02-23T10:08:41.393Z,10.07
2024-02-23T10:11:09.799Z,10.18
2024-02-23T10:13:37.862Z,10.27
2024-02-23T10:16:14.858Z,10.47
2024-02-23T10:18:45.474Z,10.79
2024-02-23T10:21:14.004Z,11.13
2024-02-23T10:23:42.772Z,11.30
2024-02-23T10:26:10.917Z,11.39
2024-02-23T10:28:39.693Z,11.39
2024-02-23T10:31:10.653Z,11.42
2024-02-23T10:33:40.983Z,11.38
2024-02-23T10:36:10.709Z,11.35
2024-02-23T10:38:41.008Z,11.20
2024-02-23T10:41:10.179Z,11.36
2024-02-23T10:43:46.148Z,11.29
2024-02-23T10:46:14.621Z,11.48
2024-02-23T10:48:43.515Z,11.58
2024-02-23T10:51:14.228Z,11.61
2024-02-23T10:53:43.263Z,11.60
2024-02-23T10:56:12.058Z,11.27
2024-02-23T10:58:40.375Z,10.83
2024-02-23T11:01:09.810Z,10.35
2024-02-23T11:03:38.898Z,10.02
2024-02-23T11:06:09.197Z,9.78
2024-02-23T11:08:38.940Z,9.78
2024-02-23T11:11:11.017Z,9.71
2024-02-23T11:13:39.891Z,9.58
2024-02-23T11:16:09.838Z,10.02
2024-02-23T11:18:38.831Z,10.20
2024-02-23T11:21:07.483Z,10.25
2024-02-23T11:23:44.609Z,10.27
2024-02-23T11:26:13.177Z,10.36
2024-02-23T11:28:45.903Z,10.41
2024-02-23T11:31:15.344Z,10.48
2024-02-23T11:33:50.018Z,10.50
2024-02-23T11:36:25.927Z,10.73
2024-02-23T11:38:59.342Z,10.90
2024-02-23T11:41:28.066Z,10.79
2024-02-23T11:43:56.924Z,11.38
2024-02-23T11:46:25.353Z,11.63
2024-02-23T11:48:55.950Z,11.84
2024-02-23T11:51:24.645Z,12.00
2024-02-23T11:53:52.828Z,12.13
2024-02-23T11:56:22.845Z,12.17
2024-02-23T11:58:51.145Z,12.08
2024-02-23T12:01:19.340Z,11.69
2024-02-23T12:03:47.481Z,11.31
2024-02-23T12:06:16.713Z,10.95
2024-02-23T12:08:44.943Z,10.69
2024-02-23T12:11:15.128Z,10.56
2024-02-23T12:13:46.056Z,10.61
2024-02-23T12:16:14.219Z,10.80
2024-02-23T12:18:42.247Z,11.07
2024-02-23T12:21:11.054Z,11.26
2024-02-23T12:23:42.909Z,11.44
2024-02-23T12:26:13.458Z,11.58
2024-02-23T12:28:41.537Z,11.68
2024-02-23T12:31:11.385Z,11.74
2024-02-23T12:33:41.280Z,11.78
2024-02-23T12:36:10.250Z,11.85
2024-02-23T12:38:38.407Z,11.94
2024-02-23T12:41:06.904Z,11.91
2024-02-23T12:43:35.771Z,11.97
2024-02-23T12:46:04.810Z,12.27
2024-02-23T12:48:34.389Z,12.40
2024-02-23T12:51:02.685Z,12.53
2024-02-23T12:53:35.620Z,12.57
2024-02-23T12:56:04.845Z,12.54
2024-02-23T12:58:33.102Z,12.44
2024-02-23T13:01:01.329Z,12.37
2024-02-23T13:03:30.038Z,12.12
2024-02-23T13:05:59.675Z,11.70
2024-02-23T13:08:28.293Z,11.33
2024-02-23T13:10:56.606Z,10.96
2024-02-23T13:13:24.730Z,10.62
2024-02-23T13:15:53.518Z,10.51
2024-02-23T13:18:21.976Z,10.43
2024-02-23T13:20:50.299Z,10.13
2024-02-23T13:23:22.825Z,10.13
2024-02-23T13:25:50.988Z,10.05
2024-02-23T13:28:19.113Z,10.08
2024-02-23T13:30:47.197Z,10.19
2024-02-23T13:33:17.554Z,10.33
2024-02-23T13:35:45.967Z,10.42
2024-02-23T13:38:14.103Z,10.57
2024-02-23T13:40:43.725Z,10.60
2024-02-23T13:43:11.791Z,10.74
2024-02-23T13:45:50.541Z,10.75
2024-02-23T13:48:19.807Z,10.87
2024-02-23T13:50:48.650Z,10.97
2024-02-23T13:53:16.938Z,11.06
2024-02-23T13:55:46.306Z,11.18
2024-02-23T13:58:14.639Z,11.23
2024-02-23T14:00:43.032Z,11.27
2024-02-23T14:03:11.530Z,11.28
2024-02-23T14:05:39.667Z,11.27
2024-02-23T14:08:09.267Z,11.28
2024-02-23T14:10:37.401Z,11.29
2024-02-23T14:13:07.554Z,11.32
2024-02-23T14:15:35.816Z,11.25
2024-02-23T14:18:04.127Z,11.34
2024-02-23T14:20:32.307Z,11.37
2024-02-23T14:23:00.602Z,11.43
2024-02-23T14:25:28.724Z,11.46
2024-02-23T14:27:57.643Z,11.48
2024-02-23T14:30:27.199Z,11.47
2024-02-23T14:32:55.567Z,11.53
2024-02-23T14:35:24.039Z,11.55
2024-02-23T14:37:52.273Z,11.58
2024-02-23T14:40:20.609Z,11.61
2024-02-23T14:42:49.964Z,11.65
2024-02-23T14:45:18.507Z,11.72
2024-02-23T14:47:48.276Z,11.72
2024-02-23T14:50:17.006Z,11.76
2024-02-23T14:52:45.923Z,11.80
2024-02-23T14:55:14.522Z,11.79
2024-02-23T14:57:43.044Z,11.72
2024-02-23T15:00:12.036Z,11.84
2024-02-23T15:02:41.378Z,11.68
2024-02-23T15:05:11.884Z,11.85
2024-02-23T15:07:40.007Z,11.93
2024-02-23T15:10:09.280Z,12.10
2024-02-23T15:12:37.604Z,12.28
2024-02-23T15:15:08.154Z,12.48
2024-02-23T15:17:36.497Z,12.72
2024-02-23T15:20:05.477Z,12.89
2024-02-23T15:22:37.121Z,13.04
2024-02-23T15:25:07.466Z,13.02
2024-02-23T15:27:35.759Z,13.07
2024-02-23T15:30:04.756Z,13.15
2024-02-23T15:32:33.036Z,13.20
2024-02-23T15:35:01.225Z,13.02
2024-02-23T15:37:29.575Z,13.09
2024-02-23T15:39:59.505Z,13.16
2024-02-23T15:42:27.522Z,13.27
2024-02-23T15:44:56.087Z,13.28
2024-02-23T15:47:24.378Z,12.90
2024-02-23T15:50:12.489Z,13.26
2024-02-23T15:52:41.051Z,13.27
2024-02-23T15:55:13.363Z,13.17
2024-02-23T15:57:41.411Z,13.33
2024-02-23T16:00:11.537Z,13.29
2024-02-23T16:02:39.755Z,13.17
2024-02-23T16:05:08.876Z,13.00
2024-02-23T16:07:37.239Z,12.96
2024-02-23T16:10:06.770Z,12.90
2024-02-23T16:12:36.414Z,12.77
2024-02-23T16:15:04.606Z,12.69
2024-02-23T16:17:34.928Z,12.42
2024-02-23T16:20:03.447Z,12.38
2024-02-23T16:22:34.328Z,12.30
2024-02-23T16:25:02.372Z,12.25
2024-02-23T16:27:31.044Z,12.18
2024-02-23T16:30:01.116Z,11.86
2024-02-23T16:32:29.426Z,11.97
2024-02-23T16:34:58.127Z,11.89
2024-02-23T16:37:26.551Z,11.83
2024-02-23T16:39:54.567Z,11.74
2024-02-23T16:42:23.006Z,11.74
2024-02-23T16:44:51.231Z,11.68
2024-02-23T16:47:21.030Z,11.54
2024-02-23T16:49:49.388Z,11.41
2024-02-23T16:52:17.518Z,11.53
2024-02-23T16:54:45.650Z,11.60
2024-02-23T16:57:13.896Z,11.62
2024-02-23T16:59:41.979Z,11.64
2024-02-23T17:02:10.105Z,11.64
2024-02-23T17:04:42.166Z,11.15
2024-02-23T17:07:10.221Z,11.00
2024-02-23T17:09:38.735Z,10.65
2024-02-23T17:12:07.376Z,10.53
2024-02-23T17:14:36.024Z,10.37
2024-02-23T17:17:04.581Z,10.31
2024-02-23T17:19:33.173Z,10.30
2024-02-23T17:22:02.886Z,10.32
2024-02-23T17:24:31.116Z,10.37
2024-02-23T17:26:59.160Z,10.51
2024-02-23T17:29:27.641Z,10.38
2024-02-23T17:31:55.840Z,10.59
2024-02-23T17:34:24.158Z,10.68
2024-02-23T17:36:52.633Z,10.83
2024-02-23T17:39:22.350Z,10.90
2024-02-23T17:41:50.661Z,10.95
2024-02-23T17:44:19.225Z,10.96
2024-02-23T17:46:49.497Z,10.92
2024-02-23T17:49:17.760Z,10.89
2024-02-23T17:51:45.954Z,10.83
2024-02-23T17:54:14.661Z,10.85
2024-02-23T17:56:44.369Z,10.84
2024-02-23T17:59:12.860Z,10.84
2024-02-23T18:01:41.000Z,10.84
2024-02-23T18:04:12.180Z,10.80
2024-02-23T18:06:40.662Z,10.82
2024-02-23T18:09:08.887Z,10.78
2024-02-23T18:11:39.624Z,10.75
2024-02-23T18:14:20.830Z,10.66
2024-02-23T18:16:49.119Z,10.69
2024-02-23T18:19:17.953Z,10.67
2024-02-23T18:21:46.312Z,10.68
2024-02-23T18:24:14.552Z,10.67
2024-02-23T18:26:48.049Z,10.57
2024-02-23T18:29:16.270Z,10.70
2024-02-23T18:31:45.918Z,10.78
2024-02-23T18:34:15.132Z,10.86
2024-02-23T18:36:44.341Z,10.88
2024-02-23T18:39:12.468Z,10.85
2024-02-23T18:41:40.774Z,10.64
2024-02-23T18:44:08.915Z,10.23
2024-02-23T18:46:37.057Z,9.87
2024-02-23T18:49:06.659Z,9.67
2024-02-23T18:51:34.685Z,9.58
2024-02-23T18:54:02.778Z,9.54
2024-02-23T18:56:31.764Z,9.68
2024-02-23T18:58:59.922Z,9.41
2024-02-23T19:01:27.967Z,9.75
2024-02-23T19:03:56.290Z,9.71
2024-02-23T19:06:26.165Z,9.78
2024-02-23T19:09:00.145Z,9.77
2024-02-23T19:11:28.834Z,9.89
2024-02-23T19:13:57.107Z,9.96
2024-02-23T19:16:25.279Z,10.02
2024-02-23T19:18:53.424Z,10.05
2024-02-23T19:21:22.842Z,9.85
2024-02-23T19:23:52.468Z,10.07
2024-02-23T19:26:24.279Z,10.10
2024-02-23T19:28:52.928Z,10.11
2024-02-23T19:31:22.760Z,10.12
2024-02-23T19:33:50.960Z,10.05
2024-02-23T19:36:19.159Z,10.09
2024-02-23T19:38:47.598Z,10.05
2024-02-23T19:41:17.273Z,10.05
2024-02-23T19:43:45.756Z,9.92
2024-02-23T19:46:18.343Z,9.96
2024-02-23T19:48:46.607Z,9.86
2024-02-23T19:51:15.208Z,9.99
2024-02-23T19:53:46.770Z,10.01
2024-02-23T19:56:16.457Z,10.03
2024-02-23T19:58:44.795Z,10.05
2024-02-23T20:01:13.313Z,10.03
2024-02-23T20:03:41.466Z,10.05
2024-02-23T20:06:13.922Z,10.04
2024-02-23T20:08:42.561Z,10.20
2024-02-23T20:11:10.879Z,10.22
2024-02-23T20:13:40.631Z,10.26
2024-02-23T20:16:08.802Z,10.26
2024-02-23T20:18:37.016Z,10.09
2024-02-23T20:21:05.630Z,10.21
2024-02-23T20:23:34.004Z,10.20
2024-02-23T20:26:02.138Z,10.18
2024-02-23T20:28:32.516Z,10.14
2024-02-23T20:31:06.679Z,10.06
2024-02-23T20:33:35.665Z,10.07
2024-02-23T20:36:04.108Z,10.04
2024-02-23T20:38:32.314Z,9.95
2024-02-23T20:41:01.038Z,9.98
2024-02-23T20:43:29.402Z,9.96
2024-02-23T20:45:59.228Z,9.93
2024-02-23T20:48:28.869Z,9.90
2024-02-23T20:50:57.238Z,9.88
2024-02-23T20:53:25.322Z,9.86
2024-02-23T20:55:53.398Z,9.86
2024-02-23T20:58:21.518Z,9.90
2024-02-23T21:00:49.874Z,9.92
2024-02-23T21:03:21.804Z,10.02
2024-02-23T21:05:51.414Z,10.09
2024-02-23T21:08:19.597Z,10.11
2024-02-23T21:10:47.615Z,10.14
2024-02-23T21:13:15.946Z,10.14
2024-02-23T21:15:44.084Z,10.12
2024-02-23T21:18:16.532Z,10.19
2024-02-23T21:20:45.724Z,10.11
2024-02-23T21:23:15.355Z,10.24
2024-02-23T21:25:44.129Z,10.30
2024-02-23T21:28:12.420Z,10.27
2024-02-23T21:30:44.725Z,10.43
2024-02-23T21:33:13.118Z,10.57
2024-02-23T21:35:41.443Z,10.57
2024-02-23T21:38:09.717Z,10.56
2024-02-23T21:40:39.328Z,10.53
2024-02-23T21:43:07.954Z,10.48
2024-02-23T21:45:36.210Z,10.44
2024-02-23T21:48:04.603Z,10.40
2024-02-23T21:50:32.850Z,10.30
2024-02-23T21:53:01.053Z,10.36
2024-02-23T21:55:30.113Z,10.32
2024-02-23T21:57:59.585Z,10.18
2024-02-23T22:00:27.619Z,10.15
2024-02-23T22:02:56.765Z,10.15
2024-02-23T22:05:25.104Z,10.12
2024-02-23T22:07:53.324Z,10.09
2024-02-23T22:10:21.355Z,10.06
2024-02-23T22:12:49.511Z,10.02
2024-02-23T22:15:21.238Z,9.92
2024-02-23T22:17:49.661Z,9.93
2024-02-23T22:20:17.971Z,9.89
2024-02-23T22:22:46.001Z,9.72
2024-02-23T22:25:14.000Z,9.79
2024-02-23T22:27:41.972Z,9.80
2024-02-23T22:30:10.526Z,9.76
2024-02-23T22:32:40.172Z,9.71
2024-02-23T22:35:09.000Z,9.67
2024-02-23T22:37:37.416Z,9.54
2024-02-23T22:40:09.661Z,9.62
2024-02-23T22:42:37.853Z,9.60
2024-02-23T22:45:07.850Z,9.46
2024-02-23T22:47:36.171Z,9.26
2024-02-23T22:50:06.178Z,9.45
2024-02-23T22:52:34.309Z,9.43
2024-02-23T22:55:02.350Z,9.48
2024-02-23T22:57:30.364Z,9.43
2024-02-23T22:59:58.505Z,9.70
2024-02-23T23:02:27.984Z,9.87
2024-02-23T23:04:56.189Z,10.01
2024-02-23T23:07:25.747Z,10.21
2024-02-23T23:09:54.009Z,10.33
2024-02-23T23:12:22.167Z,10.29
2024-02-23T23:14:50.185Z,10.13
2024-02-23T23:17:21.547Z,10.19
2024-02-23T23:19:49.638Z,10.04
2024-02-23T23:22:17.791Z,9.92
2024-02-23T23:24:47.186Z,9.81
2024-02-23T23:27:15.334Z,9.74
2024-02-23T23:29:43.406Z,9.74
2024-02-23T23:32:11.660Z,9.80
2024-02-23T23:34:39.829Z,9.87
2024-02-23T23:37:08.361Z,10.00
2024-02-23T23:39:36.447Z,10.07
2024-02-23T23:42:06.234Z,10.06
2024-02-23T23:44:34.328Z,10.07
2024-02-23T23:47:04.070Z,10.01
2024-02-23T23:49:32.201Z,9.96
2024-02-23T23:52:04.290Z,9.93
2024-02-23T23:54:33.282Z,9.89
2024-02-23T23:57:01.562Z,9.85
2024-02-23T23:59:31.061Z,9.68
